Terminal Aerodrome Forecast
Issued by NWS

Home | Current Version | Previous Version | Text Only | Print | Product List | Glossary Off
Versions: 1 2 3 4 5 6 7 8 9 10 11 12 13 14 15 16

577
FTUS43 KABR 281441 AAB
TAFMBG
TAF AMD
KMBG 281441Z 2815/2912 02008KT P6SM SCT040 OVC050
     FM281800 05010KT P6SM OVC035
     FM282000 06010KT P6SM OVC035=

USA.gov is the U.S. government's official web portal to all federal, state and local government web resources and services.